Terminal Aerodrome Forecast
Issued by NWS

Home | Current Version | Previous Version | Text Only | Print | Product List | Glossary Off
Versions: 1 2 3 4 5 6 7 8 9 10 11 12 13 14 15 16 17 18 19 20 21 22 23 24 25

000
FTUS43 KBIS 262339
TAFMOT
TAF
KMOT 262339Z 2700/2724 28006KT P6SM VCTS BKN100CB
      TEMPO 2700/2702 VRB10G20KT 6SM -TSRA BKN070CB
     FM270200 25005KT P6SM SCT100
     FM271200 32004KT P6SM BKN120
     FM271800 06008KT P6SM BKN100
     FM272100 11009KT P6SM VCSH BKN070=

USA.gov is the U.S. government's official web portal to all federal, state and local government web resources and services.